map of YXJ home
YXJ - Airport
Location
City:  Fort St. John, British Columbia, Canada
Name:North Peace Regional Airport
ICAO:CYXJ
IATA:YXJ

Details
Type:Airport (Airfield)
Use:Public/Civil
Latitude:5614'18"N (56.238333)
Longitude:12044'25"W (-120.740277)
Elevation:2280 ft (695 m)
Variation:17.53E (WMM2015v2 magnetic declination)
-0.15 annual change
Runways:2
Longest:6909 ft (2106 m), paved

Time
Time Zone:UTC-8 (DST-7)
Local Time:

Weather
METAR:CYXJ 041400Z 12007KT 15SM SKC M35/M39 A3015 RMK SLP307
TAF:CYXJ 041238Z 0413/0501 VRB03KT P6SM SKC
BECMG 0418/0420 12008KT
RMK NXT FCST BY 041900Z

Related Locations
Nearby:
Farthest:YWKS: 10625 mi / 17100 km
Wilkins Runway (Casey), Upper Peterson Glacier, AQ

Find:

   beyond  
but within

Other Information
Maps:
NOTAMs:
Links:
Sources:

  
  • flag of Canada
  • flag of British Columbia
  

Airport Diagram

Airport diagram for YXJ

Airport diagram PDF

Sectional Chart

Flight Planning
at skyvector.com

Satellite Image

Google Maps Satellite view

 

Copyright © 2004-2019 Karl L. Swartz. All rights reserved.
The Great Circle Mapper name and logo are trademarks of the Great Circle Mapper.
All other trademarks mentioned herein belong to their respective owners.
Please see credits for attibutions and further copyright information.

  Follow gcmap on Facebook Follow gcmap on Twitter GCmap on LinkedIn

hCard Microformat

Geo Microformat